sensor_id;sensor_type;location;lat;lon;timestamp;P1;durP1;ratioP1;P2;durP2;ratioP2
71265;SDS011;59030;52.052;8.550;2022-09-24T00:00:53;10.53;;;7.00;;
71265;SDS011;59030;52.052;8.550;2022-09-24T00:03:24;10.10;;;7.07;;
71265;SDS011;59030;52.052;8.550;2022-09-24T00:06:13;9.63;;;6.77;;
71265;SDS011;59030;52.052;8.550;2022-09-24T00:08:50;9.10;;;7.20;;
71265;SDS011;59030;52.052;8.550;2022-09-24T00:11:22;10.23;;;7.33;;
71265;SDS011;59030;52.052;8.550;2022-09-24T00:14:05;10.40;;;7.77;;
71265;SDS011;59030;52.052;8.550;2022-09-24T00:16:39;9.07;;;7.90;;
71265;SDS011;59030;52.052;8.550;2022-09-24T00:19:13;9.87;;;6.90;;
71265;SDS011;59030;52.052;8.550;2022-09-24T00:21:53;11.07;;;7.60;;
71265;SDS011;59030;52.052;8.550;2022-09-24T00:24:41;9.07;;;7.33;;
71265;SDS011;59030;52.052;8.550;2022-09-24T00:27:45;8.53;;;6.57;;
71265;SDS011;59030;52.052;8.550;2022-09-24T00:30:40;11.03;;;7.53;;
71265;SDS011;59030;52.052;8.550;2022-09-24T00:40:04;9.93;;;7.67;;
71265;SDS011;59030;52.052;8.550;2022-09-24T00:42:37;10.60;;;7.63;;
71265;SDS011;59030;52.052;8.550;2022-09-24T00:45:16;10.60;;;7.40;;
71265;SDS011;59030;52.052;8.550;2022-09-24T00:50:56;8.90;;;7.70;;
71265;SDS011;59030;52.052;8.550;2022-09-24T00:53:42;11.47;;;7.60;;
71265;SDS011;59030;52.052;8.550;2022-09-24T00:56:12;8.40;;;6.73;;
71265;SDS011;59030;52.052;8.550;2022-09-24T01:04:28;8.57;;;6.30;;
71265;SDS011;59030;52.052;8.550;2022-09-24T01:06:57;8.70;;;6.70;;
71265;SDS011;59030;52.052;8.550;2022-09-24T01:09:28;8.63;;;6.70;;
71265;SDS011;59030;52.052;8.550;2022-09-24T01:12:11;7.33;;;6.03;;
71265;SDS011;59030;52.052;8.550;2022-09-24T01:14:59;7.83;;;6.83;;
71265;SDS011;59030;52.052;8.550;2022-09-24T01:17:41;9.73;;;6.50;;
71265;SDS011;59030;52.052;8.550;2022-09-24T01:20:25;7.53;;;6.30;;
71265;SDS011;59030;52.052;8.550;2022-09-24T01:23:00;8.57;;;6.60;;
71265;SDS011;59030;52.052;8.550;2022-09-24T01:25:31;7.77;;;6.20;;
71265;SDS011;59030;52.052;8.550;2022-09-24T01:28:13;8.87;;;6.80;;
71265;SDS011;59030;52.052;8.550;2022-09-24T01:30:45;7.73;;;6.57;;
71265;SDS011;59030;52.052;8.550;2022-09-24T01:33:16;10.20;;;6.80;;
71265;SDS011;59030;52.052;8.550;2022-09-24T01:35:47;10.10;;;7.17;;
71265;SDS011;59030;52.052;8.550;2022-09-24T01:38:29;7.87;;;6.73;;
71265;SDS011;59030;52.052;8.550;2022-09-24T01:41:03;7.73;;;6.93;;
71265;SDS011;59030;52.052;8.550;2022-09-24T01:43:32;9.33;;;7.00;;
71265;SDS011;59030;52.052;8.550;2022-09-24T01:46:01;11.13;;;7.47;;
71265;SDS011;59030;52.052;8.550;2022-09-24T01:48:32;9.17;;;6.80;;
71265;SDS011;59030;52.052;8.550;2022-09-24T01:51:01;9.33;;;7.20;;
71265;SDS011;59030;52.052;8.550;2022-09-24T01:53:30;7.83;;;7.03;;
71265;SDS011;59030;52.052;8.550;2022-09-24T01:55:59;7.33;;;6.50;;
71265;SDS011;59030;52.052;8.550;2022-09-24T01:58:28;8.97;;;7.50;;
71265;SDS011;59030;52.052;8.550;2022-09-24T02:01:04;9.43;;;6.83;;
71265;SDS011;59030;52.052;8.550;2022-09-24T02:03:45;11.03;;;7.10;;
71265;SDS011;59030;52.052;8.550;2022-09-24T02:06:38;9.07;;;6.93;;
71265;SDS011;59030;52.052;8.550;2022-09-24T02:12:15;8.27;;;6.43;;
71265;SDS011;59030;52.052;8.550;2022-09-24T02:14:46;8.33;;;7.03;;
71265;SDS011;59030;52.052;8.550;2022-09-24T02:17:14;8.27;;;6.83;;
71265;SDS011;59030;52.052;8.550;2022-09-24T02:19:53;8.63;;;7.17;;
71265;SDS011;59030;52.052;8.550;2022-09-24T02:22:29;7.57;;;6.77;;
71265;SDS011;59030;52.052;8.550;2022-09-24T02:25:11;9.03;;;6.80;;
71265;SDS011;59030;52.052;8.550;2022-09-24T02:27:40;8.40;;;7.27;;
71265;SDS011;59030;52.052;8.550;2022-09-24T02:33:15;8.30;;;6.60;;
71265;SDS011;59030;52.052;8.550;2022-09-24T02:36:00;7.37;;;6.67;;
71265;SDS011;59030;52.052;8.550;2022-09-24T02:38:30;7.60;;;6.70;;
71265;SDS011;59030;52.052;8.550;2022-09-24T02:41:07;9.20;;;7.27;;
71265;SDS011;59030;52.052;8.550;2022-09-24T02:43:50;9.13;;;7.50;;
71265;SDS011;59030;52.052;8.550;2022-09-24T02:49:24;8.67;;;7.00;;
71265;SDS011;59030;52.052;8.550;2022-09-24T02:54:53;9.13;;;7.43;;
71265;SDS011;59030;52.052;8.550;2022-09-24T02:57:31;11.27;;;8.10;;
71265;SDS011;59030;52.052;8.550;2022-09-24T03:00:16;9.53;;;8.07;;
71265;SDS011;59030;52.052;8.550;2022-09-24T03:02:47;9.40;;;8.30;;
71265;SDS011;59030;52.052;8.550;2022-09-24T03:05:17;11.63;;;8.10;;
71265;SDS011;59030;52.052;8.550;2022-09-24T03:07:50;10.67;;;8.40;;
71265;SDS011;59030;52.052;8.550;2022-09-24T03:10:35;12.23;;;8.70;;
71265;SDS011;59030;52.052;8.550;2022-09-24T03:15:59;9.47;;;8.43;;
71265;SDS011;59030;52.052;8.550;2022-09-24T03:18:29;12.53;;;8.60;;
71265;SDS011;59030;52.052;8.550;2022-09-24T03:21:00;9.07;;;8.17;;
71265;SDS011;59030;52.052;8.550;2022-09-24T03:23:31;11.20;;;8.70;;
71265;SDS011;59030;52.052;8.550;2022-09-24T03:26:19;10.23;;;8.63;;
71265;SDS011;59030;52.052;8.550;2022-09-24T03:28:48;11.00;;;8.97;;
71265;SDS011;59030;52.052;8.550;2022-09-24T03:31:15;9.80;;;8.03;;
71265;SDS011;59030;52.052;8.550;2022-09-24T03:33:49;8.90;;;7.70;;
71265;SDS011;59030;52.052;8.550;2022-09-24T03:36:23;9.43;;;8.20;;
71265;SDS011;59030;52.052;8.550;2022-09-24T03:38:55;10.10;;;9.00;;
71265;SDS011;59030;52.052;8.550;2022-09-24T03:41:24;9.67;;;8.27;;
71265;SDS011;59030;52.052;8.550;2022-09-24T03:44:03;10.23;;;8.13;;
71265;SDS011;59030;52.052;8.550;2022-09-24T03:46:36;9.43;;;8.00;;
71265;SDS011;59030;52.052;8.550;2022-09-24T03:49:23;10.57;;;8.23;;
71265;SDS011;59030;52.052;8.550;2022-09-24T03:51:51;12.83;;;8.07;;
71265;SDS011;59030;52.052;8.550;2022-09-24T03:54:23;9.40;;;7.70;;
71265;SDS011;59030;52.052;8.550;2022-09-24T03:57:03;8.83;;;7.77;;
71265;SDS011;59030;52.052;8.550;2022-09-24T03:59:40;11.73;;;8.03;;
71265;SDS011;59030;52.052;8.550;2022-09-24T04:02:14;9.03;;;7.70;;
71265;SDS011;59030;52.052;8.550;2022-09-24T04:04:47;9.57;;;7.50;;
71265;SDS011;59030;52.052;8.550;2022-09-24T04:07:18;9.23;;;7.90;;
71265;SDS011;59030;52.052;8.550;2022-09-24T04:09:45;9.53;;;8.50;;
71265;SDS011;59030;52.052;8.550;2022-09-24T04:12:13;11.60;;;8.17;;
71265;SDS011;59030;52.052;8.550;2022-09-24T04:14:45;9.90;;;8.73;;
71265;SDS011;59030;52.052;8.550;2022-09-24T04:17:15;9.60;;;8.23;;
71265;SDS011;59030;52.052;8.550;2022-09-24T04:19:43;11.77;;;8.70;;
71265;SDS011;59030;52.052;8.550;2022-09-24T04:22:12;10.87;;;8.40;;
71265;SDS011;59030;52.052;8.550;2022-09-24T04:24:49;9.43;;;8.33;;
71265;SDS011;59030;52.052;8.550;2022-09-24T04:27:21;10.13;;;8.60;;
71265;SDS011;59030;52.052;8.550;2022-09-24T04:29:52;8.93;;;8.03;;
71265;SDS011;59030;52.052;8.550;2022-09-24T04:32:21;9.93;;;8.93;;
71265;SDS011;59030;52.052;8.550;2022-09-24T04:35:07;12.53;;;9.07;;
71265;SDS011;59030;52.052;8.550;2022-09-24T04:37:35;11.87;;;9.47;;
71265;SDS011;59030;52.052;8.550;2022-09-24T04:40:03;10.67;;;9.00;;
71265;SDS011;59030;52.052;8.550;2022-09-24T04:42:30;14.47;;;9.30;;
71265;SDS011;59030;52.052;8.550;2022-09-24T04:45:01;15.23;;;9.93;;
71265;SDS011;59030;52.052;8.550;2022-09-24T04:47:37;12.63;;;9.53;;
71265;SDS011;59030;52.052;8.550;2022-09-24T04:50:06;11.93;;;9.27;;
71265;SDS011;59030;52.052;8.550;2022-09-24T04:52:41;10.27;;;9.17;;
71265;SDS011;59030;52.052;8.550;2022-09-24T04:55:17;11.30;;;8.57;;
71265;SDS011;59030;52.052;8.550;2022-09-24T04:57:48;12.00;;;9.47;;
71265;SDS011;59030;52.052;8.550;2022-09-24T05:00:21;11.17;;;9.27;;
71265;SDS011;59030;52.052;8.550;2022-09-24T05:05:51;11.67;;;9.53;;
71265;SDS011;59030;52.052;8.550;2022-09-24T05:08:27;11.43;;;9.47;;
71265;SDS011;59030;52.052;8.550;2022-09-24T05:10:55;13.47;;;9.63;;
71265;SDS011;59030;52.052;8.550;2022-09-24T05:13:26;12.00;;;9.63;;
71265;SDS011;59030;52.052;8.550;2022-09-24T05:15:54;11.97;;;10.27;;
71265;SDS011;59030;52.052;8.550;2022-09-24T05:18:26;12.47;;;9.67;;
71265;SDS011;59030;52.052;8.550;2022-09-24T05:20:59;12.23;;;10.23;;
71265;SDS011;59030;52.052;8.550;2022-09-24T05:23:26;12.70;;;9.87;;
71265;SDS011;59030;52.052;8.550;2022-09-24T05:25:54;11.43;;;9.63;;
71265;SDS011;59030;52.052;8.550;2022-09-24T05:31:29;13.13;;;11.27;;
71265;SDS011;59030;52.052;8.550;2022-09-24T05:33:58;12.60;;;10.77;;
71265;SDS011;59030;52.052;8.550;2022-09-24T05:36:26;14.47;;;10.83;;
71265;SDS011;59030;52.052;8.550;2022-09-24T05:38:53;11.63;;;10.00;;
71265;SDS011;59030;52.052;8.550;2022-09-24T05:41:20;13.17;;;11.00;;
71265;SDS011;59030;52.052;8.550;2022-09-24T05:43:48;13.67;;;10.97;;
71265;SDS011;59030;52.052;8.550;2022-09-24T05:46:16;14.43;;;10.80;;
71265;SDS011;59030;52.052;8.550;2022-09-24T05:48:44;13.00;;;11.40;;
71265;SDS011;59030;52.052;8.550;2022-09-24T05:51:11;14.03;;;11.73;;
71265;SDS011;59030;52.052;8.550;2022-09-24T05:53:39;14.70;;;11.87;;
71265;SDS011;59030;52.052;8.550;2022-09-24T05:56:06;14.83;;;11.87;;
71265;SDS011;59030;52.052;8.550;2022-09-24T05:58:36;13.63;;;11.50;;
71265;SDS011;59030;52.052;8.550;2022-09-24T06:01:03;16.37;;;12.43;;
71265;SDS011;59030;52.052;8.550;2022-09-24T06:03:30;16.70;;;12.17;;
71265;SDS011;59030;52.052;8.550;2022-09-24T06:05:58;13.03;;;11.73;;
71265;SDS011;59030;52.052;8.550;2022-09-24T06:08:27;12.37;;;11.07;;
71265;SDS011;59030;52.052;8.550;2022-09-24T06:10:57;15.27;;;11.90;;
71265;SDS011;59030;52.052;8.550;2022-09-24T06:13:25;15.30;;;11.67;;
71265;SDS011;59030;52.052;8.550;2022-09-24T06:15:53;21.63;;;12.20;;
71265;SDS011;59030;52.052;8.550;2022-09-24T06:18:21;14.53;;;11.47;;
71265;SDS011;59030;52.052;8.550;2022-09-24T06:20:49;14.00;;;11.97;;
71265;SDS011;59030;52.052;8.550;2022-09-24T06:23:17;16.07;;;11.30;;
71265;SDS011;59030;52.052;8.550;2022-09-24T06:25:48;13.17;;;11.70;;
71265;SDS011;59030;52.052;8.550;2022-09-24T06:28:15;14.33;;;11.70;;
71265;SDS011;59030;52.052;8.550;2022-09-24T06:30:43;13.90;;;11.47;;
71265;SDS011;59030;52.052;8.550;2022-09-24T06:33:11;14.77;;;12.77;;
71265;SDS011;59030;52.052;8.550;2022-09-24T06:35:39;16.37;;;12.13;;
71265;SDS011;59030;52.052;8.550;2022-09-24T06:38:09;14.83;;;12.43;;
71265;SDS011;59030;52.052;8.550;2022-09-24T06:40:36;17.03;;;12.60;;
71265;SDS011;59030;52.052;8.550;2022-09-24T06:43:05;16.43;;;12.93;;
71265;SDS011;59030;52.052;8.550;2022-09-24T06:45:32;15.63;;;12.43;;
71265;SDS011;59030;52.052;8.550;2022-09-24T06:48:00;19.33;;;13.20;;
71265;SDS011;59030;52.052;8.550;2022-09-24T06:50:28;16.67;;;13.63;;
71265;SDS011;59030;52.052;8.550;2022-09-24T06:52:56;18.30;;;14.83;;
71265;SDS011;59030;52.052;8.550;2022-09-24T06:55:23;17.67;;;14.77;;
71265;SDS011;59030;52.052;8.550;2022-09-24T06:57:56;17.20;;;14.73;;
71265;SDS011;59030;52.052;8.550;2022-09-24T07:00:20;18.93;;;14.87;;
71265;SDS011;59030;52.052;8.550;2022-09-24T07:02:50;22.67;;;15.37;;
71265;SDS011;59030;52.052;8.550;2022-09-24T07:05:17;18.57;;;14.93;;
71265;SDS011;59030;52.052;8.550;2022-09-24T07:07:45;19.03;;;14.87;;
71265;SDS011;59030;52.052;8.550;2022-09-24T07:10:12;15.80;;;13.67;;
71265;SDS011;59030;52.052;8.550;2022-09-24T07:12:40;17.73;;;14.27;;
71265;SDS011;59030;52.052;8.550;2022-09-24T07:15:09;17.13;;;14.63;;
71265;SDS011;59030;52.052;8.550;2022-09-24T07:17:37;16.37;;;13.87;;
71265;SDS011;59030;52.052;8.550;2022-09-24T07:20:05;18.27;;;14.53;;
71265;SDS011;59030;52.052;8.550;2022-09-24T07:22:35;16.53;;;14.23;;
71265;SDS011;59030;52.052;8.550;2022-09-24T07:25:01;17.37;;;14.33;;
71265;SDS011;59030;52.052;8.550;2022-09-24T07:27:28;17.10;;;15.33;;
71265;SDS011;59030;52.052;8.550;2022-09-24T07:29:56;16.90;;;14.93;;
71265;SDS011;59030;52.052;8.550;2022-09-24T07:32:23;18.83;;;15.87;;
71265;SDS011;59030;52.052;8.550;2022-09-24T07:34:51;18.23;;;15.93;;
71265;SDS011;59030;52.052;8.550;2022-09-24T07:37:19;20.97;;;15.83;;
71265;SDS011;59030;52.052;8.550;2022-09-24T07:39:47;18.60;;;15.57;;
71265;SDS011;59030;52.052;8.550;2022-09-24T07:42:14;18.57;;;15.40;;
71265;SDS011;59030;52.052;8.550;2022-09-24T07:44:42;17.57;;;15.13;;
71265;SDS011;59030;52.052;8.550;2022-09-24T07:47:09;18.27;;;15.63;;
71265;SDS011;59030;52.052;8.550;2022-09-24T07:49:36;18.40;;;15.47;;
71265;SDS011;59030;52.052;8.550;2022-09-24T07:52:04;21.00;;;16.17;;
71265;SDS011;59030;52.052;8.550;2022-09-24T07:54:31;19.47;;;16.20;;
71265;SDS011;59030;52.052;8.550;2022-09-24T07:56:58;18.27;;;15.70;;
71265;SDS011;59030;52.052;8.550;2022-09-24T07:59:27;20.77;;;16.03;;
71265;SDS011;59030;52.052;8.550;2022-09-24T08:01:55;18.83;;;15.87;;
71265;SDS011;59030;52.052;8.550;2022-09-24T08:04:22;22.30;;;16.80;;
71265;SDS011;59030;52.052;8.550;2022-09-24T08:06:50;21.47;;;16.43;;
71265;SDS011;59030;52.052;8.550;2022-09-24T08:09:17;19.87;;;16.10;;
71265;SDS011;59030;52.052;8.550;2022-09-24T08:11:44;19.17;;;16.23;;
71265;SDS011;59030;52.052;8.550;2022-09-24T08:14:12;19.80;;;16.70;;
71265;SDS011;59030;52.052;8.550;2022-09-24T08:16:39;20.50;;;16.63;;
71265;SDS011;59030;52.052;8.550;2022-09-24T08:19:08;20.43;;;16.87;;
71265;SDS011;59030;52.052;8.550;2022-09-24T08:21:37;22.77;;;17.87;;
71265;SDS011;59030;52.052;8.550;2022-09-24T08:24:05;20.43;;;16.80;;
71265;SDS011;59030;52.052;8.550;2022-09-24T08:26:32;20.57;;;16.70;;
71265;SDS011;59030;52.052;8.550;2022-09-24T08:28:59;20.90;;;16.47;;
71265;SDS011;59030;52.052;8.550;2022-09-24T08:31:26;22.33;;;17.53;;
71265;SDS011;59030;52.052;8.550;2022-09-24T08:33:55;22.50;;;17.10;;
71265;SDS011;59030;52.052;8.550;2022-09-24T08:36:23;21.50;;;18.07;;
71265;SDS011;59030;52.052;8.550;2022-09-24T08:38:54;24.00;;;18.67;;
71265;SDS011;59030;52.052;8.550;2022-09-24T08:41:26;24.53;;;18.40;;
71265;SDS011;59030;52.052;8.550;2022-09-24T08:43:54;22.43;;;17.73;;
71265;SDS011;59030;52.052;8.550;2022-09-24T08:46:24;25.03;;;18.33;;
71265;SDS011;59030;52.052;8.550;2022-09-24T08:49:11;21.37;;;17.53;;
71265;SDS011;59030;52.052;8.550;2022-09-24T08:51:40;25.90;;;19.20;;
71265;SDS011;59030;52.052;8.550;2022-09-24T08:54:08;25.07;;;18.70;;
71265;SDS011;59030;52.052;8.550;2022-09-24T08:56:37;25.13;;;18.50;;
71265;SDS011;59030;52.052;8.550;2022-09-24T08:59:09;23.87;;;18.27;;
71265;SDS011;59030;52.052;8.550;2022-09-24T09:01:38;21.13;;;17.63;;
71265;SDS011;59030;52.052;8.550;2022-09-24T09:04:12;24.20;;;18.37;;
71265;SDS011;59030;52.052;8.550;2022-09-24T09:06:45;24.53;;;19.40;;
71265;SDS011;59030;52.052;8.550;2022-09-24T09:09:14;26.67;;;19.80;;
71265;SDS011;59030;52.052;8.550;2022-09-24T09:11:43;25.13;;;19.40;;
71265;SDS011;59030;52.052;8.550;2022-09-24T09:14:12;27.37;;;20.80;;
71265;SDS011;59030;52.052;8.550;2022-09-24T09:16:42;23.93;;;19.27;;
71265;SDS011;59030;52.052;8.550;2022-09-24T09:19:10;23.53;;;18.97;;
71265;SDS011;59030;52.052;8.550;2022-09-24T09:21:40;27.13;;;20.10;;
71265;SDS011;59030;52.052;8.550;2022-09-24T09:24:10;26.80;;;21.03;;
71265;SDS011;59030;52.052;8.550;2022-09-24T09:26:38;24.23;;;19.70;;
71265;SDS011;59030;52.052;8.550;2022-09-24T09:29:07;24.63;;;19.00;;
71265;SDS011;59030;52.052;8.550;2022-09-24T09:31:37;26.80;;;20.67;;
71265;SDS011;59030;52.052;8.550;2022-09-24T09:34:12;24.13;;;19.20;;
71265;SDS011;59030;52.052;8.550;2022-09-24T09:36:43;24.27;;;18.33;;
71265;SDS011;59030;52.052;8.550;2022-09-24T09:39:17;23.80;;;18.37;;
71265;SDS011;59030;52.052;8.550;2022-09-24T09:41:45;22.50;;;18.13;;
71265;SDS011;59030;52.052;8.550;2022-09-24T09:44:14;23.07;;;17.80;;
71265;SDS011;59030;52.052;8.550;2022-09-24T09:46:45;21.23;;;17.10;;
71265;SDS011;59030;52.052;8.550;2022-09-24T09:49:12;24.37;;;18.27;;
71265;SDS011;59030;52.052;8.550;2022-09-24T09:51:40;22.73;;;17.37;;
71265;SDS011;59030;52.052;8.550;2022-09-24T09:54:08;22.90;;;17.10;;
71265;SDS011;59030;52.052;8.550;2022-09-24T09:56:37;22.73;;;16.90;;
71265;SDS011;59030;52.052;8.550;2022-09-24T09:59:05;23.80;;;17.77;;
71265;SDS011;59030;52.052;8.550;2022-09-24T10:01:34;25.57;;;17.40;;
71265;SDS011;59030;52.052;8.550;2022-09-24T10:04:02;25.50;;;18.47;;
71265;SDS011;59030;52.052;8.550;2022-09-24T10:06:31;26.17;;;18.20;;
71265;SDS011;59030;52.052;8.550;2022-09-24T10:09:06;26.70;;;19.93;;
71265;SDS011;59030;52.052;8.550;2022-09-24T10:11:33;25.43;;;19.57;;
71265;SDS011;59030;52.052;8.550;2022-09-24T10:14:01;27.37;;;20.70;;
71265;SDS011;59030;52.052;8.550;2022-09-24T10:16:34;28.43;;;20.60;;
71265;SDS011;59030;52.052;8.550;2022-09-24T10:19:00;28.17;;;21.30;;
71265;SDS011;59030;52.052;8.550;2022-09-24T10:21:29;27.10;;;20.97;;
71265;SDS011;59030;52.052;8.550;2022-09-24T10:23:59;27.83;;;21.10;;
71265;SDS011;59030;52.052;8.550;2022-09-24T10:26:34;28.53;;;21.47;;
71265;SDS011;59030;52.052;8.550;2022-09-24T10:29:01;27.57;;;20.57;;
71265;SDS011;59030;52.052;8.550;2022-09-24T10:31:47;27.03;;;20.70;;
71265;SDS011;59030;52.052;8.550;2022-09-24T10:34:19;27.53;;;20.70;;
71265;SDS011;59030;52.052;8.550;2022-09-24T10:36:49;28.37;;;21.30;;
71265;SDS011;59030;52.052;8.550;2022-09-24T10:39:17;30.53;;;21.97;;
71265;SDS011;59030;52.052;8.550;2022-09-24T10:41:47;28.23;;;21.67;;
71265;SDS011;59030;52.052;8.550;2022-09-24T10:44:15;26.37;;;20.57;;
71265;SDS011;59030;52.052;8.550;2022-09-24T10:46:52;27.97;;;21.37;;
71265;SDS011;59030;52.052;8.550;2022-09-24T10:49:23;28.23;;;20.53;;
71265;SDS011;59030;52.052;8.550;2022-09-24T10:51:52;28.63;;;21.03;;
71265;SDS011;59030;52.052;8.550;2022-09-24T10:54:37;28.30;;;21.97;;
71265;SDS011;59030;52.052;8.550;2022-09-24T10:56:52;31.20;;;23.43;;
71265;SDS011;59030;52.052;8.550;2022-09-24T10:59:24;29.90;;;23.20;;
71265;SDS011;59030;52.052;8.550;2022-09-24T11:01:56;26.77;;;21.20;;
71265;SDS011;59030;52.052;8.550;2022-09-24T11:04:29;31.87;;;22.83;;
71265;SDS011;59030;52.052;8.550;2022-09-24T11:07:14;28.40;;;22.53;;
71265;SDS011;59030;52.052;8.550;2022-09-24T11:09:41;30.57;;;22.77;;
71265;SDS011;59030;52.052;8.550;2022-09-24T11:12:10;29.93;;;22.53;;
71265;SDS011;59030;52.052;8.550;2022-09-24T11:14:44;29.53;;;22.87;;
71265;SDS011;59030;52.052;8.550;2022-09-24T11:17:31;29.30;;;22.63;;
71265;SDS011;59030;52.052;8.550;2022-09-24T11:20:02;28.30;;;22.67;;
71265;SDS011;59030;52.052;8.550;2022-09-24T11:22:35;31.47;;;23.70;;
71265;SDS011;59030;52.052;8.550;2022-09-24T11:25:12;32.27;;;22.47;;
71265;SDS011;59030;52.052;8.550;2022-09-24T11:27:46;29.73;;;21.70;;
71265;SDS011;59030;52.052;8.550;2022-09-24T11:30:13;27.97;;;21.63;;
71265;SDS011;59030;52.052;8.550;2022-09-24T11:32:46;30.10;;;22.47;;
71265;SDS011;59030;52.052;8.550;2022-09-24T11:35:25;27.20;;;21.67;;
71265;SDS011;59030;52.052;8.550;2022-09-24T11:37:54;26.17;;;20.57;;
71265;SDS011;59030;52.052;8.550;2022-09-24T11:40:36;26.40;;;21.67;;
71265;SDS011;59030;52.052;8.550;2022-09-24T11:43:09;26.13;;;20.70;;
71265;SDS011;59030;52.052;8.550;2022-09-24T11:45:42;27.47;;;21.30;;
71265;SDS011;59030;52.052;8.550;2022-09-24T11:48:17;27.67;;;21.53;;
71265;SDS011;59030;52.052;8.550;2022-09-24T11:50:47;26.73;;;20.50;;
71265;SDS011;59030;52.052;8.550;2022-09-24T11:53:16;25.90;;;20.53;;
71265;SDS011;59030;52.052;8.550;2022-09-24T11:55:45;25.03;;;20.20;;
71265;SDS011;59030;52.052;8.550;2022-09-24T11:58:13;27.93;;;21.17;;
71265;SDS011;59030;52.052;8.550;2022-09-24T12:00:43;27.13;;;22.13;;
71265;SDS011;59030;52.052;8.550;2022-09-24T12:03:13;25.33;;;21.13;;
71265;SDS011;59030;52.052;8.550;2022-09-24T12:05:42;28.73;;;21.47;;
71265;SDS011;59030;52.052;8.550;2022-09-24T12:08:11;28.43;;;22.43;;
71265;SDS011;59030;52.052;8.550;2022-09-24T12:10:40;28.07;;;22.60;;
71265;SDS011;59030;52.052;8.550;2022-09-24T12:13:10;30.40;;;23.03;;
71265;SDS011;59030;52.052;8.550;2022-09-24T12:15:43;28.27;;;22.43;;
71265;SDS011;59030;52.052;8.550;2022-09-24T12:18:13;30.83;;;24.53;;
71265;SDS011;59030;52.052;8.550;2022-09-24T12:20:43;30.17;;;23.87;;
71265;SDS011;59030;52.052;8.550;2022-09-24T12:23:11;30.10;;;23.43;;
71265;SDS011;59030;52.052;8.550;2022-09-24T12:25:39;29.73;;;23.83;;
71265;SDS011;59030;52.052;8.550;2022-09-24T12:28:09;31.47;;;24.20;;
71265;SDS011;59030;52.052;8.550;2022-09-24T12:30:38;27.53;;;22.87;;
71265;SDS011;59030;52.052;8.550;2022-09-24T12:33:26;34.93;;;24.50;;
71265;SDS011;59030;52.052;8.550;2022-09-24T12:35:58;32.17;;;24.03;;
71265;SDS011;59030;52.052;8.550;2022-09-24T12:38:30;34.87;;;26.37;;
71265;SDS011;59030;52.052;8.550;2022-09-24T12:43:42;33.03;;;24.93;;
71265;SDS011;59030;52.052;8.550;2022-09-24T12:46:15;34.10;;;25.63;;
71265;SDS011;59030;52.052;8.550;2022-09-24T12:48:43;33.17;;;25.70;;
71265;SDS011;59030;52.052;8.550;2022-09-24T12:51:12;34.50;;;25.33;;
71265;SDS011;59030;52.052;8.550;2022-09-24T12:53:40;36.27;;;25.47;;
71265;SDS011;59030;52.052;8.550;2022-09-24T12:56:08;32.57;;;26.10;;
71265;SDS011;59030;52.052;8.550;2022-09-24T12:58:37;32.80;;;25.17;;
71265;SDS011;59030;52.052;8.550;2022-09-24T13:01:05;30.73;;;23.97;;
71265;SDS011;59030;52.052;8.550;2022-09-24T13:03:34;30.67;;;24.20;;
71265;SDS011;59030;52.052;8.550;2022-09-24T13:06:02;32.43;;;24.40;;
71265;SDS011;59030;52.052;8.550;2022-09-24T13:08:36;32.23;;;24.67;;
71265;SDS011;59030;52.052;8.550;2022-09-24T13:11:21;32.30;;;24.70;;
71265;SDS011;59030;52.052;8.550;2022-09-24T13:13:34;32.23;;;25.20;;
71265;SDS011;59030;52.052;8.550;2022-09-24T13:16:04;30.80;;;24.67;;
71265;SDS011;59030;52.052;8.550;2022-09-24T13:18:32;27.73;;;22.27;;
71265;SDS011;59030;52.052;8.550;2022-09-24T13:21:01;27.60;;;21.70;;
71265;SDS011;59030;52.052;8.550;2022-09-24T13:23:32;27.53;;;22.10;;
71265;SDS011;59030;52.052;8.550;2022-09-24T13:26:00;29.33;;;22.80;;
71265;SDS011;59030;52.052;8.550;2022-09-24T13:28:30;28.00;;;22.23;;
71265;SDS011;59030;52.052;8.550;2022-09-24T13:31:01;31.13;;;22.57;;
71265;SDS011;59030;52.052;8.550;2022-09-24T13:33:29;27.23;;;21.63;;
71265;SDS011;59030;52.052;8.550;2022-09-24T13:36:02;27.93;;;22.03;;
71265;SDS011;59030;52.052;8.550;2022-09-24T13:38:32;30.97;;;22.60;;
71265;SDS011;59030;52.052;8.550;2022-09-24T13:41:01;27.23;;;21.67;;
71265;SDS011;59030;52.052;8.550;2022-09-24T13:43:33;27.33;;;22.10;;
71265;SDS011;59030;52.052;8.550;2022-09-24T13:46:01;30.50;;;22.37;;
71265;SDS011;59030;52.052;8.550;2022-09-24T13:48:31;29.50;;;21.47;;
71265;SDS011;59030;52.052;8.550;2022-09-24T13:50:58;26.53;;;21.87;;
71265;SDS011;59030;52.052;8.550;2022-09-24T13:53:27;25.93;;;20.67;;
71265;SDS011;59030;52.052;8.550;2022-09-24T13:55:56;26.87;;;21.10;;
71265;SDS011;59030;52.052;8.550;2022-09-24T13:58:27;28.30;;;21.57;;
71265;SDS011;59030;52.052;8.550;2022-09-24T14:00:55;26.43;;;19.77;;
71265;SDS011;59030;52.052;8.550;2022-09-24T14:03:25;26.60;;;20.00;;
71265;SDS011;59030;52.052;8.550;2022-09-24T14:05:53;27.23;;;19.37;;
71265;SDS011;59030;52.052;8.550;2022-09-24T14:08:22;23.53;;;20.00;;
71265;SDS011;59030;52.052;8.550;2022-09-24T14:10:50;24.10;;;20.10;;
71265;SDS011;59030;52.052;8.550;2022-09-24T14:13:17;25.97;;;20.00;;
71265;SDS011;59030;52.052;8.550;2022-09-24T14:15:54;25.33;;;20.33;;
71265;SDS011;59030;52.052;8.550;2022-09-24T14:18:22;24.40;;;19.93;;
71265;SDS011;59030;52.052;8.550;2022-09-24T14:20:50;25.53;;;19.90;;
71265;SDS011;59030;52.052;8.550;2022-09-24T14:23:19;24.00;;;19.03;;
71265;SDS011;59030;52.052;8.550;2022-09-24T14:25:47;23.73;;;19.97;;
71265;SDS011;59030;52.052;8.550;2022-09-24T14:28:15;26.10;;;20.57;;
71265;SDS011;59030;52.052;8.550;2022-09-24T14:30:47;23.80;;;19.80;;
71265;SDS011;59030;52.052;8.550;2022-09-24T14:33:16;25.87;;;20.87;;
71265;SDS011;59030;52.052;8.550;2022-09-24T14:35:44;24.57;;;18.20;;
71265;SDS011;59030;52.052;8.550;2022-09-24T14:38:13;20.97;;;17.93;;
71265;SDS011;59030;52.052;8.550;2022-09-24T14:40:42;23.50;;;18.63;;
71265;SDS011;59030;52.052;8.550;2022-09-24T14:43:17;24.67;;;19.80;;
71265;SDS011;59030;52.052;8.550;2022-09-24T14:45:46;24.00;;;18.07;;
71265;SDS011;59030;52.052;8.550;2022-09-24T14:48:17;21.43;;;16.87;;
71265;SDS011;59030;52.052;8.550;2022-09-24T14:50:45;24.10;;;17.17;;
71265;SDS011;59030;52.052;8.550;2022-09-24T14:53:16;15.80;;;14.07;;
71265;SDS011;59030;52.052;8.550;2022-09-24T14:55:41;15.20;;;12.93;;
71265;SDS011;59030;52.052;8.550;2022-09-24T14:58:25;15.63;;;12.80;;
71265;SDS011;59030;52.052;8.550;2022-09-24T15:00:53;17.37;;;12.87;;
71265;SDS011;59030;52.052;8.550;2022-09-24T15:03:23;13.90;;;12.13;;
71265;SDS011;59030;52.052;8.550;2022-09-24T15:05:50;14.93;;;11.97;;
71265;SDS011;59030;52.052;8.550;2022-09-24T15:08:23;15.93;;;13.43;;
71265;SDS011;59030;52.052;8.550;2022-09-24T15:10:53;16.77;;;12.90;;
71265;SDS011;59030;52.052;8.550;2022-09-24T15:13:29;16.50;;;12.30;;
71265;SDS011;59030;52.052;8.550;2022-09-24T15:16:00;15.43;;;13.47;;
71265;SDS011;59030;52.052;8.550;2022-09-24T15:18:28;16.90;;;13.73;;
71265;SDS011;59030;52.052;8.550;2022-09-24T15:20:55;17.17;;;14.07;;
71265;SDS011;59030;52.052;8.550;2022-09-24T15:23:24;16.07;;;13.37;;
71265;SDS011;59030;52.052;8.550;2022-09-24T15:25:52;16.13;;;12.40;;
71265;SDS011;59030;52.052;8.550;2022-09-24T15:28:19;16.30;;;12.57;;
71265;SDS011;59030;52.052;8.550;2022-09-24T15:30:47;16.30;;;12.87;;